Time;durP1;ratioP1;P1;durP2;ratioP2;P2;SDS_P1;SDS_P2;PMS_P1;PMS_P2;Temp;Humidity;BMP_temperature;BMP_pressure;BME280_temperature;BME280_humidity;BME280_pressure;Samples;Min_cycle;Max_cycle;Signal;HPM_P1;HPM_P2
2022/10/11 00:01:19;;;;;;;;;;;;;;;21.40;31.06;98791.53;4940406;29;860;-84
2022/10/11 00:03:45;;;;;;;;;;;;;;;21.44;31.08;98781.78;4940217;29;717;-84
2022/10/11 00:06:10;;;;;;;;;;;;;;;21.21;31.52;98779.63;4940419;29;763;-84
2022/10/11 00:08:36;;;;;;;;;;;;;;;21.01;31.82;98775.84;4940439;29;827;-85
2022/10/11 00:11:02;;;;;;;;;;;;;;;20.94;31.86;98778.78;4940216;29;1029;-84
2022/10/11 00:13:27;;;;;;;;;;;;;;;21.06;31.64;98775.38;4924422;29;1211;-84
2022/10/11 00:15:53;;;;;;;;;;;;;;;20.83;31.85;98776.06;4939930;29;815;-84
2022/10/11 00:18:19;;;;;;;;;;;;;;;20.85;31.77;98773.59;4940092;29;1988;-84
2022/10/11 00:20:44;;;;;;;;;;;;;;;20.79;32.10;98776.09;4940100;29;752;-84
2022/10/11 00:23:09;;;;;;;;;;;;;;;20.90;31.94;98773.16;4924531;29;1276;-84
2022/10/11 00:25:35;;;;;;;;;;;;;;;21.10;31.92;98770.47;4939968;29;867;-84
2022/10/11 00:28:00;;;;;;;;;;;;;;;21.35;31.39;98766.53;4939507;29;911;-84
2022/10/11 00:30:26;;;;;;;;;;;;;;;21.21;31.46;98767.53;4939683;29;832;-84
2022/10/11 00:32:51;;;;;;;;;;;;;;;20.78;32.25;98763.19;4940630;29;828;-84
2022/10/11 00:35:17;;;;;;;;;;;;;;;20.93;31.93;98763.00;4923890;29;1165;-84
2022/10/11 00:37:42;;;;;;;;;;;;;;;20.97;31.70;98763.75;4939523;29;1906;-84
2022/10/11 00:40:09;;;;;;;;;;;;;;;21.06;31.22;98750.72;4940821;29;721;-84
2022/10/11 00:42:34;;;;;;;;;;;;;;;21.07;31.60;98748.69;4939316;29;775;-84
2022/10/11 00:45:18;;;;;;;;;;;;;;;20.81;31.70;98744.56;4939191;29;820;-84
2022/10/11 00:47:44;;;;;;;;;;;;;;;20.66;32.25;98743.91;4923607;29;808;-84
2022/10/11 00:50:09;;;;;;;;;;;;;;;21.16;31.77;98751.00;4939611;29;1118;-84
2022/10/11 00:52:36;;;;;;;;;;;;;;;21.36;31.58;98751.19;4939350;29;709;-83
2022/10/11 00:55:04;;;;;;;;;;;;;;;21.12;31.51;98751.03;4939573;29;1325;-84
2022/10/11 00:57:30;;;;;;;;;;;;;;;20.99;32.01;98755.66;4918656;29;1919;-84
2022/10/11 00:59:55;;;;;;;;;;;;;;;20.92;31.76;98745.22;4903117;29;907;-84
2022/10/11 01:02:22;;;;;;;;;;;;;;;20.49;32.04;98699.69;4903921;29;895;-84
2022/10/11 01:04:47;;;;;;;;;;;;;;;20.59;32.46;98738.34;4907019;29;871;-84
2022/10/11 01:07:13;;;;;;;;;;;;;;;20.66;32.02;98729.78;4938217;29;984;-84
2022/10/11 01:13:28;;;;;;;;;;;;;;;21.39;31.30;98722.00;4937838;29;802;-84
2022/10/11 01:16:12;;;;;;;;;;;;;;;21.00;31.97;98723.31;4938339;29;776;-84
2022/10/11 01:19:01;;;;;;;;;;;;;;;21.05;31.55;98714.38;4937629;29;1910;-84
2022/10/11 01:21:29;;;;;;;;;;;;;;;20.69;32.23;98714.78;4899795;29;917;-84
2022/10/11 01:24:07;;;;;;;;;;;;;;;20.58;32.33;98711.28;4900186;29;1028;-84
2022/10/11 01:26:41;;;;;;;;;;;;;;;20.99;32.25;98716.88;4900046;29;1079;-84
2022/10/11 01:29:29;;;;;;;;;;;;;;;21.20;31.88;98707.28;4899753;29;877;-84
2022/10/11 01:31:57;;;;;;;;;;;;;;;21.18;31.78;98709.72;4901721;29;875;-84
2022/10/11 01:34:26;;;;;;;;;;;;;;;21.08;31.64;98705.00;4915391;29;1131;-84
2022/10/11 01:36:51;;;;;;;;;;;;;;;21.00;31.91;98707.13;4915519;29;1977;-84
2022/10/11 01:39:21;;;;;;;;;;;;;;;20.88;31.83;98706.88;4915661;29;1082;-84
2022/10/11 01:41:47;;;;;;;;;;;;;;;20.62;32.29;98692.25;4915501;29;792;-84
2022/10/11 01:44:13;;;;;;;;;;;;;;;20.61;32.40;98698.31;4915849;29;835;-84
2022/10/11 01:46:39;;;;;;;;;;;;;;;20.61;32.28;98701.94;4918565;29;966;-84
2022/10/11 01:49:05;;;;;;;;;;;;;;;20.80;32.66;98703.34;4902831;29;938;-84
2022/10/11 01:51:32;;;;;;;;;;;;;;;21.27;31.71;98703.53;4902687;29;937;-84
2022/10/11 01:54:17;;;;;;;;;;;;;;;21.37;31.60;98704.66;4902893;29;752;-84
2022/10/11 01:56:42;;;;;;;;;;;;;;;20.98;31.82;98698.25;4918480;29;1907;-84
2022/10/11 01:59:17;;;;;;;;;;;;;;;20.74;32.56;98705.84;4933395;29;1063;-84
2022/10/11 02:01:42;;;;;;;;;;;;;;;20.71;32.07;98706.69;4921462;29;1094;-84
2022/10/11 02:04:08;;;;;;;;;;;;;;;20.84;31.89;98708.97;4937573;29;784;-84
2022/10/11 02:06:59;;;;;;;;;;;;;;;20.75;31.88;98701.78;4937566;29;845;-84
2022/10/11 02:09:28;;;;;;;;;;;;;;;21.14;31.85;98692.00;4920466;29;998;-84
2022/10/11 02:11:55;;;;;;;;;;;;;;;21.39;31.34;98696.53;4925281;29;1053;-84
2022/10/11 02:14:45;;;;;;;;;;;;;;;21.06;31.59;98707.47;4941194;29;945;-84
2022/10/11 02:17:11;;;;;;;;;;;;;;;20.72;32.50;98696.97;4922008;29;1970;-84
2022/10/11 02:19:38;;;;;;;;;;;;;;;20.79;32.08;98691.25;4956827;29;791;-84
2022/10/11 02:22:12;;;;;;;;;;;;;;;20.42;32.56;98694.09;4937961;29;1418;-84
2022/10/11 02:24:38;;;;;;;;;;;;;;;20.40;32.81;98691.66;4902766;29;1298;-84
2022/10/11 02:27:04;;;;;;;;;;;;;;;20.78;32.20;98700.16;4903087;29;832;-84
2022/10/11 02:29:30;;;;;;;;;;;;;;;21.13;31.41;98696.03;4865482;29;844;-84
2022/10/11 02:31:56;;;;;;;;;;;;;;;20.76;32.22;98691.28;4865407;29;930;-84
2022/10/11 02:34:23;;;;;;;;;;;;;;;20.99;32.28;98693.44;4865609;29;1290;-84
2022/10/11 02:37:00;;;;;;;;;;;;;;;21.39;31.48;98693.69;4865394;29;1975;-84
2022/10/11 02:39:45;;;;;;;;;;;;;;;21.20;31.72;98700.81;4864983;29;1179;-84
2022/10/11 02:42:15;;;;;;;;;;;;;;;21.08;31.91;98697.31;4847183;29;1264;-84
2022/10/11 02:44:44;;;;;;;;;;;;;;;20.97;31.91;98695.88;4865212;29;824;-84
2022/10/11 02:47:09;;;;;;;;;;;;;;;20.93;32.05;98700.75;4850095;29;1127;-84
2022/10/11 02:49:35;;;;;;;;;;;;;;;20.95;31.88;98701.16;4865488;29;1232;-84
2022/10/11 02:52:00;;;;;;;;;;;;;;;20.41;32.02;98648.03;4866650;29;947;-84
2022/10/11 02:58:01;;;;;;;;;;;;;;;21.20;32.06;98698.78;4902435;29;1907;-84
2022/10/11 03:00:27;;;;;;;;;;;;;;;21.26;31.50;98691.44;4927698;29;782;-84
2022/10/11 03:02:52;;;;;;;;;;;;;;;21.06;31.85;98690.50;4957349;29;799;-84
2022/10/11 03:05:18;;;;;;;;;;;;;;;20.92;31.84;98699.16;4957130;29;732;-84
2022/10/11 03:07:43;;;;;;;;;;;;;;;20.67;32.56;98691.78;4957211;29;764;-84
2022/10/11 03:10:09;;;;;;;;;;;;;;;20.74;32.34;98688.88;4956323;29;771;-84
2022/10/11 03:12:34;;;;;;;;;;;;;;;20.70;32.17;98690.94;4958775;29;1059;-84
2022/10/11 03:15:00;;;;;;;;;;;;;;;20.84;31.93;98692.81;4959268;29;728;-82
2022/10/11 03:17:26;;;;;;;;;;;;;;;20.83;32.15;98696.03;4943924;29;1908;-83
2022/10/11 03:19:52;;;;;;;;;;;;;;;20.76;32.21;98685.63;4959180;28;760;-83
2022/10/11 03:22:17;;;;;;;;;;;;;;;21.17;32.09;98674.16;4954690;29;1185;-83
2022/10/11 03:24:42;;;;;;;;;;;;;;;21.27;31.83;98670.38;4938274;29;904;-83
2022/10/11 03:27:08;;;;;;;;;;;;;;;21.12;32.05;98683.13;4938816;29;1195;-84
2022/10/11 03:29:33;;;;;;;;;;;;;;;20.80;32.18;98684.34;4938291;29;916;-84
2022/10/11 03:31:59;;;;;;;;;;;;;;;20.85;32.16;98676.63;4939560;29;1211;-84
2022/10/11 03:34:24;;;;;;;;;;;;;;;20.84;32.14;98681.50;4923754;29;875;-84
2022/10/11 03:36:50;;;;;;;;;;;;;;;20.75;32.04;98672.72;4939627;29;1910;-84
2022/10/11 03:39:15;;;;;;;;;;;;;;;20.69;32.73;98669.56;4923652;29;864;-84
2022/10/11 03:41:41;;;;;;;;;;;;;;;21.20;31.94;98670.50;4955730;29;1109;-84
2022/10/11 03:44:06;;;;;;;;;;;;;;;21.45;31.17;98669.31;4956034;29;1125;-84
2022/10/11 03:46:32;;;;;;;;;;;;;;;20.96;32.00;98666.78;4939411;29;803;-84
2022/10/11 03:48:57;;;;;;;;;;;;;;;20.72;32.32;98657.38;4923697;29;1178;-84
2022/10/11 03:51:23;;;;;;;;;;;;;;;20.80;32.00;98658.91;4923750;29;887;-84
2022/10/11 03:53:48;;;;;;;;;;;;;;;20.71;32.36;98661.44;4939446;29;1281;-84
2022/10/11 03:56:13;;;;;;;;;;;;;;;20.79;32.30;98657.31;4939354;29;1101;-84
2022/10/11 03:58:40;;;;;;;;;;;;;;;20.80;31.96;98658.09;4940104;29;1914;-84
2022/10/11 04:01:06;;;;;;;;;;;;;;;20.72;32.34;98657.38;4943391;29;819;-84
2022/10/11 04:03:31;;;;;;;;;;;;;;;20.74;32.50;98654.94;4959506;29;796;-84
2022/10/11 04:05:56;;;;;;;;;;;;;;;21.05;32.08;98640.78;4960690;29;736;-84
2022/10/11 04:08:22;;;;;;;;;;;;;;;21.33;31.60;98656.56;4958234;29;1146;-83
2022/10/11 04:10:47;;;;;;;;;;;;;;;20.99;31.94;98651.00;4957783;29;1044;-83
2022/10/11 04:13:13;;;;;;;;;;;;;;;21.02;31.85;98645.25;4958968;29;776;-83
2022/10/11 04:15:40;;;;;;;;;;;;;;;20.73;32.01;98649.72;4938905;29;956;-84
2022/10/11 04:18:05;;;;;;;;;;;;;;;20.59;32.52;98649.88;4923287;29;2006;-84
2022/10/11 04:20:31;;;;;;;;;;;;;;;20.73;31.98;98647.69;4923146;29;823;-84
2022/10/11 04:22:56;;;;;;;;;;;;;;;20.80;32.05;98658.09;4923510;29;803;-83
2022/10/11 04:25:22;;;;;;;;;;;;;;;20.85;31.74;98654.00;4938718;29;847;-84
2022/10/11 04:27:47;;;;;;;;;;;;;;;20.91;31.80;98650.28;4938700;29;808;-84
2022/10/11 04:30:13;;;;;;;;;;;;;;;20.76;31.92;98646.81;4938539;29;1124;-84
2022/10/11 04:32:38;;;;;;;;;;;;;;;20.93;32.14;98656.28;4939067;29;851;-84
2022/10/11 04:35:04;;;;;;;;;;;;;;;21.27;31.54;98653.41;4923093;29;1234;-84
2022/10/11 04:41:05;;;;;;;;;;;;;;;20.90;31.90;98656.38;4938650;29;780;-84
2022/10/11 04:43:30;;;;;;;;;;;;;;;21.01;31.54;98662.66;4922670;29;1207;-84
2022/10/11 04:45:56;;;;;;;;;;;;;;;20.81;31.75;98659.69;4927230;29;1146;-84
2022/10/11 04:48:21;;;;;;;;;;;;;;;20.85;31.86;98659.66;4959698;29;1004;-84
2022/10/11 04:50:47;;;;;;;;;;;;;;;20.81;32.08;98660.50;4958986;29;1425;-84
2022/10/11 04:53:15;;;;;;;;;;;;;;;21.01;32.42;98662.66;4959097;29;1244;-84
2022/10/11 04:55:40;;;;;;;;;;;;;;;21.13;31.67;98664.13;4959808;29;771;-83
2022/10/11 04:58:06;;;;;;;;;;;;;;;21.19;31.67;98668.91;4942663;29;1910;-84
2022/10/11 05:00:31;;;;;;;;;;;;;;;20.95;31.81;98664.38;4958480;29;708;-84
2022/10/11 05:02:56;;;;;;;;;;;;;;;20.79;32.09;98668.63;4957441;29;964;-83
2022/10/11 05:05:22;;;;;;;;;;;;;;;20.88;31.80;98665.28;4958790;29;1180;-83
2022/10/11 05:07:47;;;;;;;;;;;;;;;20.72;32.09;98668.69;4958367;29;1217;-83
2022/10/11 05:10:13;;;;;;;;;;;;;;;20.57;32.35;98667.25;4959285;29;728;-83
2022/10/11 05:12:39;;;;;;;;;;;;;;;20.80;32.24;98673.03;4958329;29;1191;-83
2022/10/11 05:15:05;;;;;;;;;;;;;;;21.26;31.85;98668.78;4958159;29;720;-83
2022/10/11 05:17:31;;;;;;;;;;;;;;;21.37;31.53;98668.66;4942383;29;1906;-83
2022/10/11 05:19:56;;;;;;;;;;;;;;;20.96;31.95;98674.47;4959384;29;885;-84
2022/10/11 05:22:22;;;;;;;;;;;;;;;20.94;31.89;98680.56;4958492;29;748;-84
2022/10/11 05:24:47;;;;;;;;;;;;;;;20.77;31.92;98681.56;4958729;29;815;-84
2022/10/11 05:27:12;;;;;;;;;;;;;;;20.71;31.99;98688.91;4958005;29;740;-84
2022/10/11 05:29:38;;;;;;;;;;;;;;;20.90;31.67;98684.66;4958133;29;779;-84
2022/10/11 05:32:03;;;;;;;;;;;;;;;20.90;32.07;98679.00;4958113;29;1112;-84
2022/10/11 05:34:29;;;;;;;;;;;;;;;21.21;31.93;98683.41;4958218;29;757;-83
2022/10/11 05:36:55;;;;;;;;;;;;;;;21.51;31.24;98695.97;4959250;29;1906;-83
2022/10/11 05:39:21;;;;;;;;;;;;;;;21.19;31.59;98685.88;4941888;29;820;-83
2022/10/11 05:41:46;;;;;;;;;;;;;;;20.85;32.24;98688.75;4959004;29;814;-83
2022/10/11 05:44:11;;;;;;;;;;;;;;;20.81;31.95;98693.63;4957335;28;859;-83
2022/10/11 05:46:37;;;;;;;;;;;;;;;20.81;31.83;98694.44;4958349;29;1298;-83
2022/10/11 05:49:02;;;;;;;;;;;;;;;20.84;31.64;98697.66;4956863;29;841;-83
2022/10/11 05:51:28;;;;;;;;;;;;;;;20.86;31.86;98689.53;4956792;29;1223;-83
2022/10/11 05:53:53;;;;;;;;;;;;;;;20.72;32.01;98688.47;4956700;29;1107;-83
2022/10/11 05:56:19;;;;;;;;;;;;;;;21.03;31.44;98689.28;4956688;29;1151;-83
2022/10/11 05:58:45;;;;;;;;;;;;;;;21.22;31.68;98685.00;4956662;29;1907;-83
2022/10/11 06:01:17;;;;;;;;;;;;;;;21.38;31.50;98700.59;4956741;29;799;-83
2022/10/11 06:03:43;;;;;;;;;;;;;;;21.06;31.70;98696.16;4956670;29;869;-83
2022/10/11 06:06:08;;;;;;;;;;;;;;;21.16;31.35;98700.88;4956564;29;783;-84
2022/10/11 06:08:33;;;;;;;;;;;;;;;20.73;32.09;98698.59;4956531;29;816;-85
2022/10/11 06:11:07;;;;;;;;;;;;;;;20.77;32.04;98696.50;4956481;29;1215;-84
2022/10/11 06:13:34;;;;;;;;;;;;;;;20.77;32.06;98701.34;4940513;29;1188;-84
2022/10/11 06:16:02;;;;;;;;;;;;;;;21.04;31.88;98698.63;4956412;29;728;-84
2022/10/11 06:18:27;;;;;;;;;;;;;;;21.30;31.57;98700.69;4956255;29;1906;-84
2022/10/11 06:20:53;;;;;;;;;;;;;;;21.49;31.23;98695.56;4957237;29;935;-83
2022/10/11 06:23:18;;;;;;;;;;;;;;;21.28;31.16;98705.16;4957347;29;1420;-83
2022/10/11 06:25:53;;;;;;;;;;;;;;;20.99;31.62;98705.53;4957568;29;1066;-83
2022/10/11 06:28:19;;;;;;;;;;;;;;;20.84;31.77;98706.16;4957538;29;1594;-83
2022/10/11 06:30:44;;;;;;;;;;;;;;;20.85;32.08;98702.09;4956086;29;1100;-83
2022/10/11 06:33:10;;;;;;;;;;;;;;;20.74;32.20;98694.53;4956301;29;1119;-83
2022/10/11 06:35:35;;;;;;;;;;;;;;;20.70;32.37;98704.28;4956178;29;906;-83
2022/10/11 06:38:01;;;;;;;;;;;;;;;20.61;32.44;98709.63;4940156;29;1978;-83
2022/10/11 06:40:26;;;;;;;;;;;;;;;21.10;31.80;98716.72;4956138;29;867;-83
2022/10/11 06:42:52;;;;;;;;;;;;;;;21.27;31.68;98704.34;4956347;29;787;-83
2022/10/11 06:45:17;;;;;;;;;;;;;;;21.08;31.72;98713.50;4956255;29;817;-83
2022/10/11 06:47:42;;;;;;;;;;;;;;;20.70;32.56;98709.94;4956152;29;766;-83
2022/10/11 06:50:08;;;;;;;;;;;;;;;20.74;32.29;98717.16;4940551;29;1723;-83
2022/10/11 06:52:33;;;;;;;;;;;;;;;20.86;31.75;98712.16;4918142;29;851;-83
2022/10/11 06:54:59;;;;;;;;;;;;;;;20.78;32.12;98717.94;4903066;29;1210;-83
2022/10/11 07:01:00;;;;;;;;;;;;;;;20.76;31.90;98714.69;4921593;29;921;-83
2022/10/11 07:03:26;;;;;;;;;;;;;;;21.22;31.66;98721.81;4921591;29;1287;-82
2022/10/11 07:05:52;;;;;;;;;;;;;;;21.21;31.63;98717.38;4921196;29;856;-83
2022/10/11 07:08:17;;;;;;;;;;;;;;;21.41;31.20;98713.91;4921035;29;1089;-83
2022/10/11 07:10:43;;;;;;;;;;;;;;;21.01;31.79;98714.41;4921006;29;1225;-83
2022/10/11 07:13:08;;;;;;;;;;;;;;;20.87;32.17;98714.56;4920636;29;907;-83
2022/10/11 07:15:37;;;;;;;;;;;;;;;20.75;32.15;98712.31;4920627;29;848;-83
2022/10/11 07:18:02;;;;;;;;;;;;;;;20.86;32.24;98720.66;4920089;29;1902;-83
2022/10/11 07:20:28;;;;;;;;;;;;;;;20.95;31.76;98712.47;4920671;29;867;-83
2022/10/11 07:22:53;;;;;;;;;;;;;;;20.70;32.36;98709.94;4929585;29;894;-84
2022/10/11 07:25:19;;;;;;;;;;;;;;;20.67;32.26;98705.91;4960496;29;842;-83
2022/10/11 07:27:44;;;;;;;;;;;;;;;20.71;32.33;98706.69;4960267;29;1191;-83
2022/10/11 07:30:10;;;;;;;;;;;;;;;20.81;32.16;98711.41;4960531;29;1089;-83
2022/10/11 07:32:35;;;;;;;;;;;;;;;21.19;31.83;98717.00;4942872;29;1141;-84
2022/10/11 07:35:01;;;;;;;;;;;;;;;21.43;31.48;98715.06;4959112;29;951;-83
2022/10/11 07:37:26;;;;;;;;;;;;;;;21.06;31.93;98713.13;4943026;29;1906;-83
2022/10/11 07:39:52;;;;;;;;;;;;;;;21.06;31.84;98721.63;4942921;29;1230;-83
2022/10/11 07:42:17;;;;;;;;;;;;;;;20.98;31.67;98720.88;4958936;29;1011;-83
2022/10/11 07:44:43;;;;;;;;;;;;;;;20.89;32.27;98729.09;4942692;29;841;-83
2022/10/11 07:47:08;;;;;;;;;;;;;;;20.74;32.26;98728.47;4958819;29;1144;-85
2022/10/11 07:49:34;;;;;;;;;;;;;;;20.52;32.28;98722.25;4958883;29;768;-83
2022/10/11 07:51:59;;;;;;;;;;;;;;;20.67;32.14;98728.53;4958522;29;1035;-82
2022/10/11 07:54:25;;;;;;;;;;;;;;;20.94;32.66;98720.16;4942743;29;737;-83
2022/10/11 07:56:51;;;;;;;;;;;;;;;21.36;31.48;98720.03;4958434;29;1906;-83
2022/10/11 07:59:16;;;;;;;;;;;;;;;21.29;31.78;98718.84;4958409;29;903;-83
2022/10/11 08:01:41;;;;;;;;;;;;;;;21.05;31.84;98731.34;4958687;29;1223;-82
2022/10/11 08:04:07;;;;;;;;;;;;;;;20.78;32.45;98729.25;4948185;29;1323;-82
2022/10/11 08:06:32;;;;;;;;;;;;;;;20.90;31.77;98725.06;4959274;28;1113;-82
2022/10/11 08:08:58;;;;;;;;;;;;;;;20.87;32.04;98730.75;4959515;29;1113;-83
2022/10/11 08:11:28;;;;;;;;;;;;;;;20.68;31.99;98724.50;4959349;29;1214;-82
2022/10/11 08:13:53;;;;;;;;;;;;;;;20.74;32.28;98725.66;4959108;29;1228;-83
2022/10/11 08:16:19;;;;;;;;;;;;;;;20.66;32.32;98731.78;4958997;29;778;-83
2022/10/11 08:18:44;;;;;;;;;;;;;;;21.13;31.77;98727.16;4959249;29;1973;-82
2022/10/11 08:21:11;;;;;;;;;;;;;;;21.26;31.96;98719.72;4959201;29;740;-83
2022/10/11 08:23:37;;;;;;;;;;;;;;;21.45;31.25;98717.47;4959120;29;772;-82
2022/10/11 08:26:02;;;;;;;;;;;;;;;20.98;32.06;98728.56;4943120;29;859;-83
2022/10/11 08:28:28;;;;;;;;;;;;;;;20.85;32.37;98728.34;4958942;29;869;-82
2022/10/11 08:30:53;;;;;;;;;;;;;;;20.81;32.35;98728.38;4959211;29;1152;-82
2022/10/11 08:33:19;;;;;;;;;;;;;;;20.91;32.12;98720.19;4958990;29;802;-83
2022/10/11 08:35:45;;;;;;;;;;;;;;;20.72;32.34;98721.63;4958635;29;1004;-82
2022/10/11 08:38:10;;;;;;;;;;;;;;;20.48;32.85;98712.22;4957708;29;1902;-83
2022/10/11 08:40:36;;;;;;;;;;;;;;;20.53;32.65;98714.59;4941524;29;946;-83
2022/10/11 08:43:02;;;;;;;;;;;;;;;20.84;32.37;98706.16;4941670;29;795;-83
2022/10/11 08:45:30;;;;;;;;;;;;;;;21.14;32.26;98706.16;4957531;29;851;-83
2022/10/11 08:48:01;;;;;;;;;;;;;;;21.32;31.62;98706.72;4957864;29;1204;-83
2022/10/11 08:50:26;;;;;;;;;;;;;;;21.01;31.94;98707.94;4958313;29;850;-82
2022/10/11 08:53:06;;;;;;;;;;;;;;;21.03;32.20;98694.16;4941725;29;1104;-83
2022/10/11 08:55:32;;;;;;;;;;;;;;;20.93;32.04;98707.22;4942033;29;1239;-83
2022/10/11 08:57:57;;;;;;;;;;;;;;;20.91;32.22;98708.88;4941271;29;1911;-82
2022/10/11 09:00:23;;;;;;;;;;;;;;;20.80;32.10;98703.34;4957427;29;728;-83
2022/10/11 09:02:52;;;;;;;;;;;;;;;20.84;32.03;98700.50;4956743;29;916;-83
2022/10/11 09:05:18;;;;;;;;;;;;;;;20.81;32.38;98699.28;4941093;29;795;-83
2022/10/11 09:07:44;;;;;;;;;;;;;;;20.96;31.96;98694.25;4957263;29;1228;-83
2022/10/11 09:10:22;;;;;;;;;;;;;;;20.90;31.94;98693.13;4920262;29;801;-83
2022/10/11 09:12:51;;;;;;;;;;;;;;;20.84;31.96;98692.00;4918613;29;1252;-83
2022/10/11 09:15:19;;;;;;;;;;;;;;;20.69;32.10;98697.81;4934416;29;937;-83
2022/10/11 09:17:48;;;;;;;;;;;;;;;20.88;32.86;98692.75;4933438;29;1966;-83
2022/10/11 09:20:31;;;;;;;;;;;;;;;21.13;32.06;98698.88;4934504;29;807;-83
2022/10/11 09:23:09;;;;;;;;;;;;;;;21.30;31.77;98694.25;4934876;29;1129;-83
2022/10/11 09:25:40;;;;;;;;;;;;;;;20.88;32.26;98687.91;4918904;29;795;-83
2022/10/11 09:28:18;;;;;;;;;;;;;;;20.94;32.35;98696.72;4934453;29;760;-83
2022/10/11 09:30:47;;;;;;;;;;;;;;;21.00;32.18;98692.19;4919025;29;868;-83
2022/10/11 09:33:18;;;;;;;;;;;;;;;20.84;32.23;98686.34;4934336;29;803;-83
2022/10/11 09:35:45;;;;;;;;;;;;;;;20.76;32.32;98686.41;4934714;29;1114;-82
2022/10/11 09:38:29;;;;;;;;;;;;;;;20.58;32.54;98697.16;4918589;29;1918;-83
2022/10/11 09:40:55;;;;;;;;;;;;;;;20.86;32.17;98693.16;4941638;29;1116;-82
2022/10/11 09:43:20;;;;;;;;;;;;;;;20.96;32.08;98700.72;4958919;29;756;-83
2022/10/11 09:45:46;;;;;;;;;;;;;;;21.24;32.29;98691.06;4959203;29;792;-83
2022/10/11 09:48:22;;;;;;;;;;;;;;;21.36;31.73;98683.25;4957933;29;1113;-83
2022/10/11 09:50:47;;;;;;;;;;;;;;;21.06;32.21;98688.47;4957854;29;766;-83
2022/10/11 09:53:13;;;;;;;;;;;;;;;20.75;32.88;98684.81;4957846;29;1157;-83
2022/10/11 09:55:59;;;;;;;;;;;;;;;20.75;32.70;98679.16;4956578;29;1156;-83
2022/10/11 09:58:26;;;;;;;;;;;;;;;20.79;32.60;98679.94;4899329;29;1907;-83
2022/10/11 10:01:05;;;;;;;;;;;;;;;20.74;32.75;98680.41;4899850;29;1130;-83
2022/10/11 10:03:31;;;;;;;;;;;;;;;20.70;32.65;98676.81;4899320;29;1039;-83
2022/10/11 10:06:03;;;;;;;;;;;;;;;21.19;32.41;98676.56;4899438;29;883;-83
2022/10/11 10:08:28;;;;;;;;;;;;;;;21.36;32.04;98677.56;4899455;29;709;-83
2022/10/11 10:11:00;;;;;;;;;;;;;;;21.13;32.24;98670.56;4883697;29;1330;-83
2022/10/11 10:13:40;;;;;;;;;;;;;;;20.88;32.62;98681.44;4899290;29;793;-83
2022/10/11 10:16:10;;;;;;;;;;;;;;;21.12;32.06;98663.31;4888384;29;1439;-83
2022/10/11 10:18:41;;;;;;;;;;;;;;;20.96;32.27;98669.59;4880638;29;1986;-83
2022/10/11 10:21:08;;;;;;;;;;;;;;;20.80;32.51;98664.56;4862415;29;1143;-83
2022/10/11 10:23:34;;;;;;;;;;;;;;;20.79;32.37;98660.13;4846896;29;1079;-82
2022/10/11 10:26:13;;;;;;;;;;;;;;;20.68;32.84;98656.66;4842276;29;864;-82
2022/10/11 10:28:43;;;;;;;;;;;;;;;20.66;32.57;98661.09;4859146;29;936;-82
2022/10/11 10:31:19;;;;;;;;;;;;;;;20.84;32.44;98661.69;4862829;29;1533;-83
2022/10/11 10:33:44;;;;;;;;;;;;;;;21.05;32.39;98657.78;4862782;29;773;-83
2022/10/11 10:36:14;;;;;;;;;;;;;;;21.26;32.13;98656.66;4894523;29;912;-82
2022/10/11 10:38:40;;;;;;;;;;;;;;;21.37;31.87;98656.53;4918424;29;1903;-83
2022/10/11 10:41:09;;;;;;;;;;;;;;;20.95;32.37;98653.06;4918709;29;828;-83
2022/10/11 10:46:31;;;;;;;;;;;;;;;21.98;31.10;98645.00;4921984;29;1362;-84
2022/10/11 10:49:05;;;;;;;;;;;;;;;21.32;32.77;98647.28;4922475;29;1127;-84
2022/10/11 10:51:39;;;;;;;;;;;;;;;21.01;33.12;98642.88;4907016;29;1234;-84
2022/10/11 10:54:14;;;;;;;;;;;;;;;20.91;33.01;98646.66;4906639;29;811;-84
2022/10/11 10:56:49;;;;;;;;;;;;;;;20.79;32.96;98645.19;4907051;29;756;-83
2022/10/11 10:59:17;;;;;;;;;;;;;;;20.95;32.41;98636.88;4907008;29;724;-84
2022/10/11 11:01:57;;;;;;;;;;;;;;;20.87;32.41;98640.22;4907293;29;1244;-84
2022/10/11 11:08:01;;;;;;;;;;;;;;;20.85;32.00;98637.84;4865476;29;888;-84
2022/10/11 11:10:38;;;;;;;;;;;;;;;20.97;32.08;98642.09;4865589;29;947;-83
2022/10/11 11:13:22;;;;;;;;;;;;;;;21.28;30.91;98637.22;4849993;29;800;-85
2022/10/11 11:15:57;;;;;;;;;;;;;;;20.87;31.45;98623.25;4850198;29;952;-84
2022/10/11 11:18:25;;;;;;;;;;;;;;;20.59;31.44;98625.25;4849924;29;1985;-84
2022/10/11 11:21:02;;;;;;;;;;;;;;;20.64;31.24;98615.50;4849927;29;1184;-84
2022/10/11 11:23:31;;;;;;;;;;;;;;;20.58;31.53;98620.81;4865052;29;813;-84
2022/10/11 11:26:14;;;;;;;;;;;;;;;20.52;31.15;98614.00;4849773;29;1062;-84
2022/10/11 11:28:39;;;;;;;;;;;;;;;21.13;30.07;98616.81;4834433;29;1152;-84
2022/10/11 11:31:15;;;;;;;;;;;;;;;21.08;29.88;98614.47;4849500;29;1125;-84
2022/10/11 11:33:47;;;;;;;;;;;;;;;21.00;30.17;98610.16;4846098;29;876;-84
2022/10/11 11:36:14;;;;;;;;;;;;;;;20.63;30.52;98609.03;4865123;29;924;-84
2022/10/11 11:38:43;;;;;;;;;;;;;;;20.51;30.78;98606.75;4867759;29;1952;-84
2022/10/11 11:41:10;;;;;;;;;;;;;;;20.58;30.30;98606.69;4852107;29;1139;-84
2022/10/11 11:43:37;;;;;;;;;;;;;;;20.99;29.93;98614.22;5010826;23;3783;-84
2022/10/11 11:46:08;;;;;;;;;;;;;;;21.42;29.72;98607.91;4909164;29;1115;-83
2022/10/11 11:48:33;;;;;;;;;;;;;;;21.17;30.77;98620.41;4924827;29;1242;-83
2022/10/11 11:51:01;;;;;;;;;;;;;;;20.93;31.05;98613.06;4924771;29;1119;-83
2022/10/11 11:53:34;;;;;;;;;;;;;;;20.73;31.36;98610.94;4908403;29;1185;-83
2022/10/11 11:56:02;;;;;;;;;;;;;;;20.91;30.77;98612.69;4939939;29;879;-83
2022/10/11 11:58:58;;;;;;;;;;;;;;;20.73;31.21;98608.09;4919690;29;1919;-83
2022/10/11 12:01:29;;;;;;;;;;;;;;;21.09;30.39;98616.09;4901680;29;1010;-83
2022/10/11 12:04:02;;;;;;;;;;;;;;;21.26;30.23;98614.22;4886116;29;766;-83
2022/10/11 12:06:28;;;;;;;;;;;;;;;21.24;30.00;98617.47;4886266;29;1230;-83
2022/10/11 12:09:00;;;;;;;;;;;;;;;20.96;30.28;98610.19;4901550;29;788;-84
2022/10/11 12:11:37;;;;;;;;;;;;;;;20.72;30.76;98617.78;4885966;29;1064;-84
2022/10/11 12:14:29;;;;;;;;;;;;;;;20.84;30.24;98610.78;4867195;29;995;-83
2022/10/11 12:17:03;;;;;;;;;;;;;;;20.65;30.47;98603.75;4880255;29;1974;-83
2022/10/11 12:19:29;;;;;;;;;;;;;;;20.70;30.15;98617.41;4882826;29;951;-83
2022/10/11 12:22:29;;;;;;;;;;;;;;;21.01;29.85;98614.56;4867339;29;713;-83
2022/10/11 12:25:15;;;;;;;;;;;;;;;21.23;29.39;98626.38;4827040;29;1232;-85
2022/10/11 12:27:47;;;;;;;;;;;;;;;21.03;29.57;98614.94;4758312;30;966;-84
2022/10/11 12:30:31;;;;;;;;;;;;;;;20.81;30.06;98620.09;4757720;30;1058;-84
2022/10/11 12:33:12;;;;;;;;;;;;;;;20.64;30.11;98609.84;4757605;30;1180;-84
2022/10/11 12:35:41;;;;;;;;;;;;;;;20.58;30.34;98612.34;4790336;29;1228;-83
2022/10/11 12:38:25;;;;;;;;;;;;;;;20.60;30.38;98604.22;4729148;30;1967;-84
2022/10/11 12:40:53;;;;;;;;;;;;;;;20.96;29.85;98609.41;4737611;30;1174;-83
2022/10/11 12:43:18;;;;;;;;;;;;;;;21.13;29.43;98608.31;4736798;30;877;-83
2022/10/11 12:45:46;;;;;;;;;;;;;;;21.43;28.75;98604.66;4750544;30;1220;-84
2022/10/11 12:48:21;;;;;;;;;;;;;;;20.98;29.36;98612.59;4754294;30;1027;-83
2022/10/11 12:50:55;;;;;;;;;;;;;;;20.80;29.69;98602.34;4754737;30;1146;-84
2022/10/11 12:53:27;;;;;;;;;;;;;;;20.59;30.02;98613.94;4754799;30;950;-84
2022/10/11 12:56:07;;;;;;;;;;;;;;;20.73;29.99;98602.44;4737368;30;1137;-83
2022/10/11 12:58:37;;;;;;;;;;;;;;;21.07;29.21;98610.03;4743352;30;1900;-83
2022/10/11 13:01:03;;;;;;;;;;;;;;;21.04;29.14;98610.91;4754745;30;823;-83
2022/10/11 13:03:29;;;;;;;;;;;;;;;20.88;29.67;98605.06;4754624;30;1024;-83
2022/10/11 13:05:56;;;;;;;;;;;;;;;20.80;29.63;98599.50;4844980;29;1136;-84
2022/10/11 13:08:31;;;;;;;;;;;;;;;20.80;29.35;98595.88;4854826;29;1119;-83
2022/10/11 13:10:58;;;;;;;;;;;;;;;20.61;29.81;98591.69;4884569;29;928;-84
2022/10/11 13:13:24;;;;;;;;;;;;;;;20.67;29.78;98592.81;4869534;29;1137;-84
2022/10/11 13:15:53;;;;;;;;;;;;;;;21.00;29.18;98593.97;4900252;29;913;-84
2022/10/11 13:18:20;;;;;;;;;;;;;;;21.33;28.77;98595.09;4866258;29;1986;-84
2022/10/11 13:20:46;;;;;;;;;;;;;;;21.09;29.06;98587.78;4863135;29;1332;-83
2022/10/11 13:23:19;;;;;;;;;;;;;;;20.78;29.77;98587.84;4863075;29;962;-84
2022/10/11 13:25:44;;;;;;;;;;;;;;;20.81;29.79;98581.31;4863947;29;892;-84
2022/10/11 13:28:10;;;;;;;;;;;;;;;20.50;30.11;98588.19;4913151;29;1149;-83
2022/10/11 13:30:35;;;;;;;;;;;;;;;20.84;29.60;98590.19;4897194;29;941;-84